sensor_id;sensor_type;location;lat;lon;timestamp;temperature;humidity
4461;DHT22;2243;48.812;9.232;2023-02-26T00:02:25;2.00;99.90
4461;DHT22;2243;48.812;9.232;2023-02-26T00:04:56;2.00;99.90
4461;DHT22;2243;48.812;9.232;2023-02-26T00:07:27;2.10;99.90
4461;DHT22;2243;48.812;9.232;2023-02-26T00:09:59;1.90;99.90
4461;DHT22;2243;48.812;9.232;2023-02-26T00:12:34;1.90;99.90
4461;DHT22;2243;48.812;9.232;2023-02-26T00:15:06;1.80;99.90
4461;DHT22;2243;48.812;9.232;2023-02-26T00:18:03;1.80;99.90
4461;DHT22;2243;48.812;9.232;2023-02-26T00:20:37;1.90;99.90
4461;DHT22;2243;48.812;9.232;2023-02-26T00:23:11;2.00;99.90
4461;DHT22;2243;48.812;9.232;2023-02-26T00:25:45;2.00;99.90
4461;DHT22;2243;48.812;9.232;2023-02-26T00:28:17;2.00;99.90
4461;DHT22;2243;48.812;9.232;2023-02-26T00:30:48;2.00;99.90
4461;DHT22;2243;48.812;9.232;2023-02-26T00:33:19;2.10;99.90
4461;DHT22;2243;48.812;9.232;2023-02-26T00:35:56;2.10;99.90
4461;DHT22;2243;48.812;9.232;2023-02-26T00:38:34;2.00;99.90
4461;DHT22;2243;48.812;9.232;2023-02-26T00:41:06;1.90;99.90
4461;DHT22;2243;48.812;9.232;2023-02-26T00:43:38;1.80;99.90
4461;DHT22;2243;48.812;9.232;2023-02-26T00:49:25;1.70;99.90
4461;DHT22;2243;48.812;9.232;2023-02-26T00:52:04;1.70;99.90
4461;DHT22;2243;48.812;9.232;2023-02-26T00:54:36;1.70;99.90
4461;DHT22;2243;48.812;9.232;2023-02-26T00:57:07;1.60;99.90
4461;DHT22;2243;48.812;9.232;2023-02-26T00:59:38;1.70;99.90
4461;DHT22;2243;48.812;9.232;2023-02-26T01:02:09;1.60;99.90
4461;DHT22;2243;48.812;9.232;2023-02-26T01:04:40;1.60;99.90
4461;DHT22;2243;48.812;9.232;2023-02-26T01:07:12;1.40;99.90
4461;DHT22;2243;48.812;9.232;2023-02-26T01:09:43;1.40;99.90
4461;DHT22;2243;48.812;9.232;2023-02-26T01:12:15;1.40;99.90
4461;DHT22;2243;48.812;9.232;2023-02-26T01:14:47;1.40;99.90
4461;DHT22;2243;48.812;9.232;2023-02-26T01:17:28;1.50;99.90
4461;DHT22;2243;48.812;9.232;2023-02-26T01:20:30;1.40;99.90
4461;DHT22;2243;48.812;9.232;2023-02-26T01:23:26;1.30;99.90
4461;DHT22;2243;48.812;9.232;2023-02-26T01:26:06;1.30;99.90
4461;DHT22;2243;48.812;9.232;2023-02-26T01:28:41;1.30;99.90
4461;DHT22;2243;48.812;9.232;2023-02-26T01:31:36;1.20;99.90
4461;DHT22;2243;48.812;9.232;2023-02-26T01:34:17;1.20;99.90
4461;DHT22;2243;48.812;9.232;2023-02-26T01:37:20;1.10;99.90
4461;DHT22;2243;48.812;9.232;2023-02-26T01:40:20;0.90;99.90
4461;DHT22;2243;48.812;9.232;2023-02-26T01:43:29;1.00;99.90
4461;DHT22;2243;48.812;9.232;2023-02-26T01:48:59;0.90;99.90
4461;DHT22;2243;48.812;9.232;2023-02-26T01:51:54;0.90;99.90
4461;DHT22;2243;48.812;9.232;2023-02-26T01:54:36;0.90;99.90
4461;DHT22;2243;48.812;9.232;2023-02-26T01:57:14;0.90;99.90
4461;DHT22;2243;48.812;9.232;2023-02-26T01:59:49;0.80;99.90
4461;DHT22;2243;48.812;9.232;2023-02-26T02:02:23;0.80;99.90
4461;DHT22;2243;48.812;9.232;2023-02-26T02:04:55;0.80;99.90
4461;DHT22;2243;48.812;9.232;2023-02-26T02:07:26;0.70;99.90
4461;DHT22;2243;48.812;9.232;2023-02-26T02:09:57;0.70;99.90
4461;DHT22;2243;48.812;9.232;2023-02-26T02:12:41;0.80;99.90
4461;DHT22;2243;48.812;9.232;2023-02-26T02:15:44;0.70;99.90
4461;DHT22;2243;48.812;9.232;2023-02-26T02:26:52;0.60;99.90
4461;DHT22;2243;48.812;9.232;2023-02-26T02:29:49;0.60;99.90
4461;DHT22;2243;48.812;9.232;2023-02-26T02:33:04;0.60;99.90
4461;DHT22;2243;48.812;9.232;2023-02-26T02:35:33;0.50;99.90
4461;DHT22;2243;48.812;9.232;2023-02-26T02:38:25;0.40;99.90
4461;DHT22;2243;48.812;9.232;2023-02-26T02:41:16;0.50;99.90
4461;DHT22;2243;48.812;9.232;2023-02-26T02:43:51;0.40;99.90
4461;DHT22;2243;48.812;9.232;2023-02-26T02:46:26;0.40;99.90
4461;DHT22;2243;48.812;9.232;2023-02-26T02:49:06;0.40;99.90
4461;DHT22;2243;48.812;9.232;2023-02-26T02:51:53;0.30;99.90
4461;DHT22;2243;48.812;9.232;2023-02-26T02:54:52;0.40;99.90
4461;DHT22;2243;48.812;9.232;2023-02-26T02:57:34;0.30;99.90
4461;DHT22;2243;48.812;9.232;2023-02-26T03:00:10;0.20;99.90
4461;DHT22;2243;48.812;9.232;2023-02-26T03:02:58;0.20;99.90
4461;DHT22;2243;48.812;9.232;2023-02-26T03:05:41;0.20;99.90
4461;DHT22;2243;48.812;9.232;2023-02-26T03:08:16;0.20;99.90
4461;DHT22;2243;48.812;9.232;2023-02-26T03:10:49;0.20;99.90
4461;DHT22;2243;48.812;9.232;2023-02-26T03:13:22;0.10;99.90
4461;DHT22;2243;48.812;9.232;2023-02-26T03:22:16;0.20;99.90
4461;DHT22;2243;48.812;9.232;2023-02-26T03:27:54;0.20;99.90
4461;DHT22;2243;48.812;9.232;2023-02-26T03:36:23;0.30;99.90
4461;DHT22;2243;48.812;9.232;2023-02-26T03:39:36;0.30;99.90
4461;DHT22;2243;48.812;9.232;2023-02-26T03:42:06;0.30;99.90
4461;DHT22;2243;48.812;9.232;2023-02-26T03:44:48;0.30;99.90
4461;DHT22;2243;48.812;9.232;2023-02-26T03:47:26;0.20;99.90
4461;DHT22;2243;48.812;9.232;2023-02-26T03:52:41;0.30;99.90
4461;DHT22;2243;48.812;9.232;2023-02-26T03:55:17;0.40;99.90
4461;DHT22;2243;48.812;9.232;2023-02-26T03:57:49;0.20;99.90
4461;DHT22;2243;48.812;9.232;2023-02-26T04:00:20;0.20;99.90
4461;DHT22;2243;48.812;9.232;2023-02-26T04:02:59;0.20;99.90
4461;DHT22;2243;48.812;9.232;2023-02-26T04:05:39;0.20;99.90
4461;DHT22;2243;48.812;9.232;2023-02-26T04:08:12;0.10;99.90
4461;DHT22;2243;48.812;9.232;2023-02-26T04:10:54;0.00;99.90
4461;DHT22;2243;48.812;9.232;2023-02-26T04:13:28;-0.20;99.90
4461;DHT22;2243;48.812;9.232;2023-02-26T04:15:59;-0.20;99.90
4461;DHT22;2243;48.812;9.232;2023-02-26T04:18:30;-0.10;99.90
4461;DHT22;2243;48.812;9.232;2023-02-26T04:21:01;-0.10;99.90
4461;DHT22;2243;48.812;9.232;2023-02-26T04:23:32;-0.30;99.90
4461;DHT22;2243;48.812;9.232;2023-02-26T04:26:03;-0.30;99.90
4461;DHT22;2243;48.812;9.232;2023-02-26T04:28:34;-0.40;99.90
4461;DHT22;2243;48.812;9.232;2023-02-26T04:31:07;-0.50;99.90
4461;DHT22;2243;48.812;9.232;2023-02-26T04:33:40;-0.60;99.90
4461;DHT22;2243;48.812;9.232;2023-02-26T04:36:11;-0.70;99.90
4461;DHT22;2243;48.812;9.232;2023-02-26T04:38:42;-0.80;99.90
4461;DHT22;2243;48.812;9.232;2023-02-26T04:41:13;-0.80;99.90
4461;DHT22;2243;48.812;9.232;2023-02-26T04:43:43;-0.90;99.90
4461;DHT22;2243;48.812;9.232;2023-02-26T04:46:14;-0.90;99.90
4461;DHT22;2243;48.812;9.232;2023-02-26T04:48:45;-0.90;99.90
4461;DHT22;2243;48.812;9.232;2023-02-26T04:51:16;-0.80;99.90
4461;DHT22;2243;48.812;9.232;2023-02-26T04:53:47;-0.90;99.90
4461;DHT22;2243;48.812;9.232;2023-02-26T04:56:18;-1.00;99.90
4461;DHT22;2243;48.812;9.232;2023-02-26T04:58:49;-1.10;99.90
4461;DHT22;2243;48.812;9.232;2023-02-26T05:01:20;-1.10;99.90
4461;DHT22;2243;48.812;9.232;2023-02-26T05:03:51;-1.00;99.90
4461;DHT22;2243;48.812;9.232;2023-02-26T05:06:22;-1.10;99.90
4461;DHT22;2243;48.812;9.232;2023-02-26T05:08:53;-1.10;99.90
4461;DHT22;2243;48.812;9.232;2023-02-26T05:11:24;-1.10;99.90
4461;DHT22;2243;48.812;9.232;2023-02-26T05:13:55;-1.20;99.90
4461;DHT22;2243;48.812;9.232;2023-02-26T05:16:26;-1.30;99.90
4461;DHT22;2243;48.812;9.232;2023-02-26T05:18:58;-1.30;99.90
4461;DHT22;2243;48.812;9.232;2023-02-26T05:21:29;-1.30;99.90
4461;DHT22;2243;48.812;9.232;2023-02-26T05:23:59;-1.30;99.90
4461;DHT22;2243;48.812;9.232;2023-02-26T05:26:30;-1.40;99.90
4461;DHT22;2243;48.812;9.232;2023-02-26T05:29:01;-1.20;99.90
4461;DHT22;2243;48.812;9.232;2023-02-26T05:31:32;-1.30;99.90
4461;DHT22;2243;48.812;9.232;2023-02-26T05:34:03;-1.30;99.90
4461;DHT22;2243;48.812;9.232;2023-02-26T05:36:34;-1.30;99.90
4461;DHT22;2243;48.812;9.232;2023-02-26T05:39:05;-1.30;99.90
4461;DHT22;2243;48.812;9.232;2023-02-26T05:41:36;-1.30;99.90
4461;DHT22;2243;48.812;9.232;2023-02-26T05:44:07;-1.40;99.90
4461;DHT22;2243;48.812;9.232;2023-02-26T05:46:38;-1.50;99.90
4461;DHT22;2243;48.812;9.232;2023-02-26T05:49:09;-1.60;99.90
4461;DHT22;2243;48.812;9.232;2023-02-26T05:51:40;-1.60;99.90
4461;DHT22;2243;48.812;9.232;2023-02-26T05:54:12;-1.60;99.90
4461;DHT22;2243;48.812;9.232;2023-02-26T05:56:43;-1.60;99.90
4461;DHT22;2243;48.812;9.232;2023-02-26T05:59:14;-1.50;99.90
4461;DHT22;2243;48.812;9.232;2023-02-26T06:01:45;-1.60;99.90
4461;DHT22;2243;48.812;9.232;2023-02-26T06:04:16;-1.60;99.90
4461;DHT22;2243;48.812;9.232;2023-02-26T06:06:47;-1.60;99.90
4461;DHT22;2243;48.812;9.232;2023-02-26T06:09:18;-1.50;99.90
4461;DHT22;2243;48.812;9.232;2023-02-26T06:11:49;-1.40;99.90
4461;DHT22;2243;48.812;9.232;2023-02-26T06:14:20;-1.50;99.90
4461;DHT22;2243;48.812;9.232;2023-02-26T06:16:51;-1.40;99.90
4461;DHT22;2243;48.812;9.232;2023-02-26T06:19:22;-1.40;99.90
4461;DHT22;2243;48.812;9.232;2023-02-26T06:21:52;-1.50;99.90
4461;DHT22;2243;48.812;9.232;2023-02-26T06:24:24;-1.40;99.90
4461;DHT22;2243;48.812;9.232;2023-02-26T06:26:55;-1.40;99.90
4461;DHT22;2243;48.812;9.232;2023-02-26T06:29:25;-1.30;99.90
4461;DHT22;2243;48.812;9.232;2023-02-26T06:31:56;-1.20;99.90
4461;DHT22;2243;48.812;9.232;2023-02-26T06:34:27;-1.10;99.90
4461;DHT22;2243;48.812;9.232;2023-02-26T06:36:58;-1.20;99.90
4461;DHT22;2243;48.812;9.232;2023-02-26T06:39:29;-1.20;99.90
4461;DHT22;2243;48.812;9.232;2023-02-26T06:42:01;-1.00;99.90
4461;DHT22;2243;48.812;9.232;2023-02-26T06:44:31;-1.00;99.90
4461;DHT22;2243;48.812;9.232;2023-02-26T06:47:02;-0.90;99.90
4461;DHT22;2243;48.812;9.232;2023-02-26T06:49:34;-0.90;99.90
4461;DHT22;2243;48.812;9.232;2023-02-26T06:52:05;-0.90;99.90
4461;DHT22;2243;48.812;9.232;2023-02-26T06:54:36;-0.90;99.90
4461;DHT22;2243;48.812;9.232;2023-02-26T06:57:07;-1.00;99.90
4461;DHT22;2243;48.812;9.232;2023-02-26T06:59:37;-1.10;99.90
4461;DHT22;2243;48.812;9.232;2023-02-26T07:02:15;-0.90;99.90
4461;DHT22;2243;48.812;9.232;2023-02-26T07:04:48;-0.80;99.90
4461;DHT22;2243;48.812;9.232;2023-02-26T07:07:19;-0.70;99.90
4461;DHT22;2243;48.812;9.232;2023-02-26T07:09:50;-0.60;99.90
4461;DHT22;2243;48.812;9.232;2023-02-26T07:12:21;-0.60;99.90
4461;DHT22;2243;48.812;9.232;2023-02-26T07:14:51;-0.60;99.90
4461;DHT22;2243;48.812;9.232;2023-02-26T07:17:22;-0.70;99.90
4461;DHT22;2243;48.812;9.232;2023-02-26T07:19:53;-0.70;99.90
4461;DHT22;2243;48.812;9.232;2023-02-26T07:22:24;-0.60;99.90
4461;DHT22;2243;48.812;9.232;2023-02-26T07:24:55;-0.50;99.90
4461;DHT22;2243;48.812;9.232;2023-02-26T07:27:26;-0.40;99.90
4461;DHT22;2243;48.812;9.232;2023-02-26T07:29:59;-0.40;99.90
4461;DHT22;2243;48.812;9.232;2023-02-26T07:32:31;-0.30;99.90
4461;DHT22;2243;48.812;9.232;2023-02-26T07:35:02;-0.10;99.90
4461;DHT22;2243;48.812;9.232;2023-02-26T07:37:33;0.00;99.90
4461;DHT22;2243;48.812;9.232;2023-02-26T07:40:05;0.10;99.90
4461;DHT22;2243;48.812;9.232;2023-02-26T07:42:36;0.10;99.90
4461;DHT22;2243;48.812;9.232;2023-02-26T07:45:08;0.10;99.90
4461;DHT22;2243;48.812;9.232;2023-02-26T07:47:39;0.10;99.90
4461;DHT22;2243;48.812;9.232;2023-02-26T07:50:10;0.10;99.90
4461;DHT22;2243;48.812;9.232;2023-02-26T07:52:41;0.10;99.90
4461;DHT22;2243;48.812;9.232;2023-02-26T07:55:13;0.10;99.90
4461;DHT22;2243;48.812;9.232;2023-02-26T07:57:44;0.00;99.90
4461;DHT22;2243;48.812;9.232;2023-02-26T08:00:15;0.00;99.90
4461;DHT22;2243;48.812;9.232;2023-02-26T08:02:47;0.00;99.90
4461;DHT22;2243;48.812;9.232;2023-02-26T08:05:18;0.00;99.90
4461;DHT22;2243;48.812;9.232;2023-02-26T08:07:49;0.10;99.90
4461;DHT22;2243;48.812;9.232;2023-02-26T08:10:20;0.10;99.90
4461;DHT22;2243;48.812;9.232;2023-02-26T08:12:51;0.30;99.90
4461;DHT22;2243;48.812;9.232;2023-02-26T08:15:21;0.30;99.90
4461;DHT22;2243;48.812;9.232;2023-02-26T08:17:53;0.50;99.90
4461;DHT22;2243;48.812;9.232;2023-02-26T08:20:24;2.60;99.90
4461;DHT22;2243;48.812;9.232;2023-02-26T08:22:55;2.30;99.90
4461;DHT22;2243;48.812;9.232;2023-02-26T08:25:26;2.00;99.90
4461;DHT22;2243;48.812;9.232;2023-02-26T08:27:57;1.70;99.90
4461;DHT22;2243;48.812;9.232;2023-02-26T08:30:28;1.70;99.90
4461;DHT22;2243;48.812;9.232;2023-02-26T08:32:59;1.40;99.90
4461;DHT22;2243;48.812;9.232;2023-02-26T08:35:30;1.30;99.90
4461;DHT22;2243;48.812;9.232;2023-02-26T08:38:01;1.00;99.90
4461;DHT22;2243;48.812;9.232;2023-02-26T08:40:32;1.00;99.90
4461;DHT22;2243;48.812;9.232;2023-02-26T08:43:03;0.80;99.90
4461;DHT22;2243;48.812;9.232;2023-02-26T08:45:34;1.00;99.90
4461;DHT22;2243;48.812;9.232;2023-02-26T08:48:05;0.90;99.90
4461;DHT22;2243;48.812;9.232;2023-02-26T08:50:40;0.80;99.90
4461;DHT22;2243;48.812;9.232;2023-02-26T08:53:11;0.80;99.90
4461;DHT22;2243;48.812;9.232;2023-02-26T08:55:42;0.60;99.90
4461;DHT22;2243;48.812;9.232;2023-02-26T08:58:14;0.50;99.90
4461;DHT22;2243;48.812;9.232;2023-02-26T09:00:46;0.50;99.90
4461;DHT22;2243;48.812;9.232;2023-02-26T09:03:17;0.50;99.90
4461;DHT22;2243;48.812;9.232;2023-02-26T09:05:49;0.50;99.90
4461;DHT22;2243;48.812;9.232;2023-02-26T09:08:20;0.60;99.90
4461;DHT22;2243;48.812;9.232;2023-02-26T09:10:51;0.80;99.90
4461;DHT22;2243;48.812;9.232;2023-02-26T09:13:22;0.70;99.90
4461;DHT22;2243;48.812;9.232;2023-02-26T09:15:53;0.70;99.90
4461;DHT22;2243;48.812;9.232;2023-02-26T09:18:24;0.60;99.90
4461;DHT22;2243;48.812;9.232;2023-02-26T09:20:55;0.60;99.90
4461;DHT22;2243;48.812;9.232;2023-02-26T09:23:26;0.90;99.90
4461;DHT22;2243;48.812;9.232;2023-02-26T09:25:57;0.90;99.90
4461;DHT22;2243;48.812;9.232;2023-02-26T09:28:28;1.00;99.90
4461;DHT22;2243;48.812;9.232;2023-02-26T09:30:59;0.90;99.90
4461;DHT22;2243;48.812;9.232;2023-02-26T09:33:30;0.80;99.90
4461;DHT22;2243;48.812;9.232;2023-02-26T09:36:01;0.90;99.90
4461;DHT22;2243;48.812;9.232;2023-02-26T09:38:32;0.90;99.90
4461;DHT22;2243;48.812;9.232;2023-02-26T09:41:08;0.80;99.90
4461;DHT22;2243;48.812;9.232;2023-02-26T09:47:01;0.80;99.90
4461;DHT22;2243;48.812;9.232;2023-02-26T09:49:52;0.90;99.90
4461;DHT22;2243;48.812;9.232;2023-02-26T09:52:44;0.80;99.90
4461;DHT22;2243;48.812;9.232;2023-02-26T09:55:38;0.90;99.90
4461;DHT22;2243;48.812;9.232;2023-02-26T09:58:30;0.90;99.90
4461;DHT22;2243;48.812;9.232;2023-02-26T10:10:08;1.10;99.90
4461;DHT22;2243;48.812;9.232;2023-02-26T10:12:54;1.00;99.90
4461;DHT22;2243;48.812;9.232;2023-02-26T10:15:31;1.10;99.90
4461;DHT22;2243;48.812;9.232;2023-02-26T10:18:22;1.10;99.90
4461;DHT22;2243;48.812;9.232;2023-02-26T10:21:08;1.00;99.90
4461;DHT22;2243;48.812;9.232;2023-02-26T10:23:48;1.10;99.90
4461;DHT22;2243;48.812;9.232;2023-02-26T10:26:44;1.20;99.90
4461;DHT22;2243;48.812;9.232;2023-02-26T10:35:22;1.40;99.90
4461;DHT22;2243;48.812;9.232;2023-02-26T10:37:59;1.50;99.90
4461;DHT22;2243;48.812;9.232;2023-02-26T10:40:41;1.50;99.90
4461;DHT22;2243;48.812;9.232;2023-02-26T10:43:37;1.70;99.90
4461;DHT22;2243;48.812;9.232;2023-02-26T10:49:42;1.70;99.90
4461;DHT22;2243;48.812;9.232;2023-02-26T10:52:17;1.70;99.90
4461;DHT22;2243;48.812;9.232;2023-02-26T10:58:04;1.60;99.90
4461;DHT22;2243;48.812;9.232;2023-02-26T11:00:48;1.60;99.90
4461;DHT22;2243;48.812;9.232;2023-02-26T11:06:01;1.70;99.90
4461;DHT22;2243;48.812;9.232;2023-02-26T11:08:41;1.80;99.90
4461;DHT22;2243;48.812;9.232;2023-02-26T11:14:07;1.80;99.90
4461;DHT22;2243;48.812;9.232;2023-02-26T11:16:45;1.80;99.90
4461;DHT22;2243;48.812;9.232;2023-02-26T11:19:25;1.90;99.90
4461;DHT22;2243;48.812;9.232;2023-02-26T11:21:59;2.30;99.90
4461;DHT22;2243;48.812;9.232;2023-02-26T11:24:35;2.50;99.90
4461;DHT22;2243;48.812;9.232;2023-02-26T11:27:23;2.60;99.90
4461;DHT22;2243;48.812;9.232;2023-02-26T11:29:58;2.90;99.90
4461;DHT22;2243;48.812;9.232;2023-02-26T11:32:35;2.80;99.90
4461;DHT22;2243;48.812;9.232;2023-02-26T11:35:07;2.90;99.90
4461;DHT22;2243;48.812;9.232;2023-02-26T11:37:41;2.90;99.90
4461;DHT22;2243;48.812;9.232;2023-02-26T11:40:22;2.80;99.90
4461;DHT22;2243;48.812;9.232;2023-02-26T11:43:16;3.00;99.90
4461;DHT22;2243;48.812;9.232;2023-02-26T11:45:56;3.00;99.90
4461;DHT22;2243;48.812;9.232;2023-02-26T11:48:40;3.00;99.90
4461;DHT22;2243;48.812;9.232;2023-02-26T11:51:23;3.10;99.90
4461;DHT22;2243;48.812;9.232;2023-02-26T11:53:59;3.20;99.90
4461;DHT22;2243;48.812;9.232;2023-02-26T11:56:41;3.30;99.90
4461;DHT22;2243;48.812;9.232;2023-02-26T11:59:23;3.40;99.90
4461;DHT22;2243;48.812;9.232;2023-02-26T12:01:54;3.10;99.90
4461;DHT22;2243;48.812;9.232;2023-02-26T12:04:25;2.80;99.90
4461;DHT22;2243;48.812;9.232;2023-02-26T12:06:57;2.70;99.90
4461;DHT22;2243;48.812;9.232;2023-02-26T12:09:28;2.60;99.90
4461;DHT22;2243;48.812;9.232;2023-02-26T12:12:05;2.70;99.90
4461;DHT22;2243;48.812;9.232;2023-02-26T12:15:13;2.70;99.90
4461;DHT22;2243;48.812;9.232;2023-02-26T12:23:49;2.70;99.90
4461;DHT22;2243;48.812;9.232;2023-02-26T12:29:36;2.60;99.90
4461;DHT22;2243;48.812;9.232;2023-02-26T12:32:55;2.60;99.90
4461;DHT22;2243;48.812;9.232;2023-02-26T12:35:50;2.60;99.90
4461;DHT22;2243;48.812;9.232;2023-02-26T12:41:27;2.60;99.90
4461;DHT22;2243;48.812;9.232;2023-02-26T12:58:40;2.90;99.90
4461;DHT22;2243;48.812;9.232;2023-02-26T13:05:22;3.10;99.90
4461;DHT22;2243;48.812;9.232;2023-02-26T13:21:10;2.90;99.90
4461;DHT22;2243;48.812;9.232;2023-02-26T13:24:06;2.90;99.90
4461;DHT22;2243;48.812;9.232;2023-02-26T13:26:42;3.00;99.90
4461;DHT22;2243;48.812;9.232;2023-02-26T13:29:20;3.20;99.90
4461;DHT22;2243;48.812;9.232;2023-02-26T13:32:07;3.10;99.90
4461;DHT22;2243;48.812;9.232;2023-02-26T13:34:53;3.10;99.90
4461;DHT22;2243;48.812;9.232;2023-02-26T13:37:38;3.20;99.90
4461;DHT22;2243;48.812;9.232;2023-02-26T13:40:46;3.20;99.90
4461;DHT22;2243;48.812;9.232;2023-02-26T13:49:48;3.40;99.90
4461;DHT22;2243;48.812;9.232;2023-02-26T13:52:32;3.30;99.90
4461;DHT22;2243;48.812;9.232;2023-02-26T13:55:05;3.20;99.90
4461;DHT22;2243;48.812;9.232;2023-02-26T13:57:52;3.30;99.90
4461;DHT22;2243;48.812;9.232;2023-02-26T14:00:34;3.20;99.90
4461;DHT22;2243;48.812;9.232;2023-02-26T14:03:30;3.30;99.90
4461;DHT22;2243;48.812;9.232;2023-02-26T14:08:43;3.00;99.90
4461;DHT22;2243;48.812;9.232;2023-02-26T14:14:11;3.10;99.90
4461;DHT22;2243;48.812;9.232;2023-02-26T14:22:19;3.00;99.90
4461;DHT22;2243;48.812;9.232;2023-02-26T14:27:36;3.20;99.90
4461;DHT22;2243;48.812;9.232;2023-02-26T14:35:27;3.00;99.90
4461;DHT22;2243;48.812;9.232;2023-02-26T14:38:09;3.10;99.90
4461;DHT22;2243;48.812;9.232;2023-02-26T14:40:46;3.10;99.90
4461;DHT22;2243;48.812;9.232;2023-02-26T14:46:13;3.10;99.90
4461;DHT22;2243;48.812;9.232;2023-02-26T14:48:45;3.10;99.90
4461;DHT22;2243;48.812;9.232;2023-02-26T14:57:34;3.40;99.80
4461;DHT22;2243;48.812;9.232;2023-02-26T15:06:58;3.20;99.80
4461;DHT22;2243;48.812;9.232;2023-02-26T15:13:28;3.20;99.90
4461;DHT22;2243;48.812;9.232;2023-02-26T15:19:55;3.10;99.20
4461;DHT22;2243;48.812;9.232;2023-02-26T15:25:38;2.90;99.70
4461;DHT22;2243;48.812;9.232;2023-02-26T15:28:18;2.80;99.90
4461;DHT22;2243;48.812;9.232;2023-02-26T15:30:58;2.90;99.90
4461;DHT22;2243;48.812;9.232;2023-02-26T15:33:32;2.70;99.90
4461;DHT22;2243;48.812;9.232;2023-02-26T15:36:07;2.70;99.90
4461;DHT22;2243;48.812;9.232;2023-02-26T15:38:47;2.60;99.90
4461;DHT22;2243;48.812;9.232;2023-02-26T15:41:20;2.50;99.90
4461;DHT22;2243;48.812;9.232;2023-02-26T15:43:56;2.60;99.90
4461;DHT22;2243;48.812;9.232;2023-02-26T15:46:38;2.60;99.90
4461;DHT22;2243;48.812;9.232;2023-02-26T15:49:23;2.70;99.90
4461;DHT22;2243;48.812;9.232;2023-02-26T15:52:01;2.70;99.80
4461;DHT22;2243;48.812;9.232;2023-02-26T15:54:57;2.90;99.20
4461;DHT22;2243;48.812;9.232;2023-02-26T15:57:30;2.80;99.50
4461;DHT22;2243;48.812;9.232;2023-02-26T16:00:08;2.90;99.80
4461;DHT22;2243;48.812;9.232;2023-02-26T16:02:48;2.80;98.70
4461;DHT22;2243;48.812;9.232;2023-02-26T16:05:19;2.80;98.40
4461;DHT22;2243;48.812;9.232;2023-02-26T16:07:51;2.60;98.00
4461;DHT22;2243;48.812;9.232;2023-02-26T16:10:38;2.60;97.80
4461;DHT22;2243;48.812;9.232;2023-02-26T16:13:14;2.60;97.80
4461;DHT22;2243;48.812;9.232;2023-02-26T16:16:14;2.50;97.30
4461;DHT22;2243;48.812;9.232;2023-02-26T16:18:55;2.40;97.80
4461;DHT22;2243;48.812;9.232;2023-02-26T16:21:35;2.20;98.00
4461;DHT22;2243;48.812;9.232;2023-02-26T16:24:15;2.20;98.20
4461;DHT22;2243;48.812;9.232;2023-02-26T16:26:53;2.20;98.10
4461;DHT22;2243;48.812;9.232;2023-02-26T16:29:29;2.20;98.40
4461;DHT22;2243;48.812;9.232;2023-02-26T16:32:02;2.70;99.90
4461;DHT22;2243;48.812;9.232;2023-02-26T16:34:47;3.30;99.90
4461;DHT22;2243;48.812;9.232;2023-02-26T16:48:27;3.10;99.90
4461;DHT22;2243;48.812;9.232;2023-02-26T16:51:10;3.30;96.90
4461;DHT22;2243;48.812;9.232;2023-02-26T16:53:47;2.90;96.60
4461;DHT22;2243;48.812;9.232;2023-02-26T16:56:39;2.60;96.60
4461;DHT22;2243;48.812;9.232;2023-02-26T17:02:02;2.40;97.10
4461;DHT22;2243;48.812;9.232;2023-02-26T17:04:58;2.30;97.10
4461;DHT22;2243;48.812;9.232;2023-02-26T17:07:34;2.30;97.00
4461;DHT22;2243;48.812;9.232;2023-02-26T17:10:33;2.20;99.90
4461;DHT22;2243;48.812;9.232;2023-02-26T17:13:25;2.90;99.40
4461;DHT22;2243;48.812;9.232;2023-02-26T17:16:01;2.60;96.80
4461;DHT22;2243;48.812;9.232;2023-02-26T17:18:38;2.40;96.70
4461;DHT22;2243;48.812;9.232;2023-02-26T17:21:09;2.20;97.10
4461;DHT22;2243;48.812;9.232;2023-02-26T17:23:40;2.20;97.90
4461;DHT22;2243;48.812;9.232;2023-02-26T17:26:11;2.20;98.00
4461;DHT22;2243;48.812;9.232;2023-02-26T17:28:43;2.20;98.20
4461;DHT22;2243;48.812;9.232;2023-02-26T17:31:14;2.10;97.80
4461;DHT22;2243;48.812;9.232;2023-02-26T17:33:45;2.00;98.00
4461;DHT22;2243;48.812;9.232;2023-02-26T17:36:18;1.90;98.30
4461;DHT22;2243;48.812;9.232;2023-02-26T17:38:50;1.90;98.40
4461;DHT22;2243;48.812;9.232;2023-02-26T17:41:21;1.90;98.60
4461;DHT22;2243;48.812;9.232;2023-02-26T17:43:52;1.90;98.80
4461;DHT22;2243;48.812;9.232;2023-02-26T17:46:23;1.80;99.30
4461;DHT22;2243;48.812;9.232;2023-02-26T17:48:54;1.80;99.10
4461;DHT22;2243;48.812;9.232;2023-02-26T17:51:25;1.90;99.00
4461;DHT22;2243;48.812;9.232;2023-02-26T17:53:57;1.80;99.20
4461;DHT22;2243;48.812;9.232;2023-02-26T17:56:30;1.70;99.50
4461;DHT22;2243;48.812;9.232;2023-02-26T17:59:03;1.60;99.60
4461;DHT22;2243;48.812;9.232;2023-02-26T18:01:36;1.60;99.70
4461;DHT22;2243;48.812;9.232;2023-02-26T18:04:08;1.60;99.20
4461;DHT22;2243;48.812;9.232;2023-02-26T18:06:39;1.50;99.30
4461;DHT22;2243;48.812;9.232;2023-02-26T18:09:11;1.50;99.30
4461;DHT22;2243;48.812;9.232;2023-02-26T18:11:43;1.60;99.30
4461;DHT22;2243;48.812;9.232;2023-02-26T18:14:14;1.50;99.10
4461;DHT22;2243;48.812;9.232;2023-02-26T18:16:45;1.30;99.10
4461;DHT22;2243;48.812;9.232;2023-02-26T18:19:17;1.20;99.30
4461;DHT22;2243;48.812;9.232;2023-02-26T18:21:48;1.20;99.50
4461;DHT22;2243;48.812;9.232;2023-02-26T18:24:19;1.20;99.50
4461;DHT22;2243;48.812;9.232;2023-02-26T18:26:50;1.20;99.20
4461;DHT22;2243;48.812;9.232;2023-02-26T18:29:22;1.10;99.20
4461;DHT22;2243;48.812;9.232;2023-02-26T18:31:53;1.20;99.00
4461;DHT22;2243;48.812;9.232;2023-02-26T18:34:25;1.10;99.00
4461;DHT22;2243;48.812;9.232;2023-02-26T18:36:56;1.10;99.30
4461;DHT22;2243;48.812;9.232;2023-02-26T18:39:27;1.00;99.10
4461;DHT22;2243;48.812;9.232;2023-02-26T18:42:02;1.00;99.10
4461;DHT22;2243;48.812;9.232;2023-02-26T18:44:34;0.90;99.10
4461;DHT22;2243;48.812;9.232;2023-02-26T18:47:06;1.00;99.20
4461;DHT22;2243;48.812;9.232;2023-02-26T18:49:38;1.10;99.90
4461;DHT22;2243;48.812;9.232;2023-02-26T18:52:10;1.10;99.60
4461;DHT22;2243;48.812;9.232;2023-02-26T18:54:41;1.10;99.50
4461;DHT22;2243;48.812;9.232;2023-02-26T18:57:12;1.10;99.40
4461;DHT22;2243;48.812;9.232;2023-02-26T18:59:44;1.00;99.30
4461;DHT22;2243;48.812;9.232;2023-02-26T19:02:15;1.00;99.90
4461;DHT22;2243;48.812;9.232;2023-02-26T19:04:46;1.60;99.90
4461;DHT22;2243;48.812;9.232;2023-02-26T19:07:18;1.50;99.90
4461;DHT22;2243;48.812;9.232;2023-02-26T19:09:48;1.30;99.90
4461;DHT22;2243;48.812;9.232;2023-02-26T19:12:20;1.20;99.90
4461;DHT22;2243;48.812;9.232;2023-02-26T19:14:52;1.10;99.80
4461;DHT22;2243;48.812;9.232;2023-02-26T19:17:24;1.00;99.80
4461;DHT22;2243;48.812;9.232;2023-02-26T19:19:54;1.00;99.90
4461;DHT22;2243;48.812;9.232;2023-02-26T19:22:25;0.90;99.90
4461;DHT22;2243;48.812;9.232;2023-02-26T19:24:56;0.90;99.90
4461;DHT22;2243;48.812;9.232;2023-02-26T19:27:27;0.80;99.90
4461;DHT22;2243;48.812;9.232;2023-02-26T19:29:58;0.80;99.90
4461;DHT22;2243;48.812;9.232;2023-02-26T19:32:29;0.70;99.90
4461;DHT22;2243;48.812;9.232;2023-02-26T19:35:01;0.80;99.90
4461;DHT22;2243;48.812;9.232;2023-02-26T19:37:31;0.70;99.90
4461;DHT22;2243;48.812;9.232;2023-02-26T19:40:03;0.70;99.90
4461;DHT22;2243;48.812;9.232;2023-02-26T19:42:39;0.70;99.90
4461;DHT22;2243;48.812;9.232;2023-02-26T19:45:12;0.80;99.90
4461;DHT22;2243;48.812;9.232;2023-02-26T19:47:44;0.70;99.90
4461;DHT22;2243;48.812;9.232;2023-02-26T19:50:15;0.70;99.90
4461;DHT22;2243;48.812;9.232;2023-02-26T19:52:48;0.80;99.90
4461;DHT22;2243;48.812;9.232;2023-02-26T19:55:19;0.70;99.90
4461;DHT22;2243;48.812;9.232;2023-02-26T19:57:50;0.80;99.90
4461;DHT22;2243;48.812;9.232;2023-02-26T20:00:21;0.80;99.90
4461;DHT22;2243;48.812;9.232;2023-02-26T20:02:52;0.70;99.90
4461;DHT22;2243;48.812;9.232;2023-02-26T20:05:25;0.60;99.90